sensor_id;sensor_type;location;lat;lon;timestamp;P1;durP1;ratioP1;P2;durP2;ratioP2
28068;SDS011;15382;47.578;8.086;2022-11-15T00:03:33;13.07;;;8.05;;
28068;SDS011;15382;47.578;8.086;2022-11-15T00:13:56;12.93;;;7.00;;
28068;SDS011;15382;47.578;8.086;2022-11-15T00:24:15;16.35;;;8.00;;
28068;SDS011;15382;47.578;8.086;2022-11-15T00:34:34;18.38;;;8.98;;
28068;SDS011;15382;47.578;8.086;2022-11-15T00:44:54;13.02;;;7.30;;
28068;SDS011;15382;47.578;8.086;2022-11-15T00:55:14;14.32;;;8.63;;
28068;SDS011;15382;47.578;8.086;2022-11-15T01:05:36;28.00;;;9.95;;
28068;SDS011;15382;47.578;8.086;2022-11-15T01:15:56;21.08;;;9.50;;
28068;SDS011;15382;47.578;8.086;2022-11-15T01:26:16;16.52;;;8.95;;
28068;SDS011;15382;47.578;8.086;2022-11-15T01:36:36;16.10;;;9.18;;
28068;SDS011;15382;47.578;8.086;2022-11-15T01:46:55;41.13;;;12.50;;
28068;SDS011;15382;47.578;8.086;2022-11-15T01:57:16;18.73;;;10.45;;
28068;SDS011;15382;47.578;8.086;2022-11-15T02:07:35;17.20;;;9.98;;
28068;SDS011;15382;47.578;8.086;2022-11-15T02:28:37;17.15;;;9.20;;
28068;SDS011;15382;47.578;8.086;2022-11-15T02:39:06;15.75;;;9.15;;
28068;SDS011;15382;47.578;8.086;2022-11-15T02:49:39;13.75;;;8.80;;
28068;SDS011;15382;47.578;8.086;2022-11-15T03:00:06;15.38;;;7.90;;
28068;SDS011;15382;47.578;8.086;2022-11-15T03:20:54;22.83;;;10.60;;
28068;SDS011;15382;47.578;8.086;2022-11-15T03:31:16;23.73;;;11.38;;
28068;SDS011;15382;47.578;8.086;2022-11-15T03:42:02;17.40;;;10.23;;
28068;SDS011;15382;47.578;8.086;2022-11-15T03:52:44;24.25;;;12.48;;
28068;SDS011;15382;47.578;8.086;2022-11-15T04:03:05;28.77;;;14.10;;
28068;SDS011;15382;47.578;8.086;2022-11-15T04:13:26;30.92;;;14.48;;
28068;SDS011;15382;47.578;8.086;2022-11-15T04:23:45;24.10;;;11.98;;
28068;SDS011;15382;47.578;8.086;2022-11-15T04:34:13;23.10;;;11.02;;
28068;SDS011;15382;47.578;8.086;2022-11-15T04:44:32;24.90;;;11.82;;
28068;SDS011;15382;47.578;8.086;2022-11-15T04:54:51;25.15;;;11.40;;
28068;SDS011;15382;47.578;8.086;2022-11-15T05:05:10;22.20;;;11.02;;
28068;SDS011;15382;47.578;8.086;2022-11-15T05:15:29;20.38;;;11.05;;
28068;SDS011;15382;47.578;8.086;2022-11-15T05:25:49;25.13;;;12.13;;
28068;SDS011;15382;47.578;8.086;2022-11-15T05:36:16;26.58;;;12.77;;
28068;SDS011;15382;47.578;8.086;2022-11-15T05:46:36;30.55;;;12.63;;
28068;SDS011;15382;47.578;8.086;2022-11-15T05:56:59;45.97;;;13.95;;
28068;SDS011;15382;47.578;8.086;2022-11-15T06:07:18;43.72;;;14.63;;
28068;SDS011;15382;47.578;8.086;2022-11-15T06:17:38;62.03;;;17.15;;
28068;SDS011;15382;47.578;8.086;2022-11-15T06:27:58;37.28;;;15.18;;
28068;SDS011;15382;47.578;8.086;2022-11-15T06:38:17;53.28;;;16.02;;
28068;SDS011;15382;47.578;8.086;2022-11-15T06:48:37;50.05;;;15.98;;
28068;SDS011;15382;47.578;8.086;2022-11-15T06:58:56;28.30;;;14.25;;
28068;SDS011;15382;47.578;8.086;2022-11-15T07:09:15;29.30;;;13.07;;
28068;SDS011;15382;47.578;8.086;2022-11-15T07:19:34;257.92;;;31.02;;
28068;SDS011;15382;47.578;8.086;2022-11-15T07:29:54;121.50;;;23.38;;
28068;SDS011;15382;47.578;8.086;2022-11-15T07:40:13;66.75;;;23.95;;
28068;SDS011;15382;47.578;8.086;2022-11-15T07:50:33;60.60;;;18.65;;
28068;SDS011;15382;47.578;8.086;2022-11-15T08:00:52;49.70;;;18.00;;
28068;SDS011;15382;47.578;8.086;2022-11-15T08:11:11;42.97;;;15.13;;
28068;SDS011;15382;47.578;8.086;2022-11-15T08:21:30;29.50;;;13.43;;
28068;SDS011;15382;47.578;8.086;2022-11-15T08:31:49;32.90;;;14.43;;
28068;SDS011;15382;47.578;8.086;2022-11-15T08:42:08;26.13;;;12.23;;
28068;SDS011;15382;47.578;8.086;2022-11-15T08:52:27;17.92;;;11.43;;
28068;SDS011;15382;47.578;8.086;2022-11-15T09:02:46;19.55;;;10.25;;
28068;SDS011;15382;47.578;8.086;2022-11-15T09:13:05;16.13;;;9.82;;
28068;SDS011;15382;47.578;8.086;2022-11-15T09:23:25;17.90;;;9.68;;
28068;SDS011;15382;47.578;8.086;2022-11-15T09:33:45;18.50;;;9.90;;
28068;SDS011;15382;47.578;8.086;2022-11-15T09:54:31;21.60;;;9.65;;
28068;SDS011;15382;47.578;8.086;2022-11-15T10:04:35;17.13;;;9.30;;
28068;SDS011;15382;47.578;8.086;2022-11-15T10:14:37;18.48;;;10.18;;
28068;SDS011;15382;47.578;8.086;2022-11-15T10:24:40;20.35;;;10.05;;
28068;SDS011;15382;47.578;8.086;2022-11-15T10:34:44;18.92;;;10.80;;
28068;SDS011;15382;47.578;8.086;2022-11-15T10:44:45;21.60;;;11.02;;
28068;SDS011;15382;47.578;8.086;2022-11-15T10:54:47;27.53;;;12.47;;
28068;SDS011;15382;47.578;8.086;2022-11-15T11:04:52;24.85;;;13.15;;
28068;SDS011;15382;47.578;8.086;2022-11-15T11:14:53;28.03;;;14.37;;
28068;SDS011;15382;47.578;8.086;2022-11-15T11:25:04;30.77;;;15.30;;
28068;SDS011;15382;47.578;8.086;2022-11-15T11:35:12;26.20;;;13.55;;
28068;SDS011;15382;47.578;8.086;2022-11-15T12:05:50;31.75;;;13.85;;
28068;SDS011;15382;47.578;8.086;2022-11-15T12:16:08;17.17;;;10.27;;
28068;SDS011;15382;47.578;8.086;2022-11-15T12:26:21;19.02;;;11.88;;
28068;SDS011;15382;47.578;8.086;2022-11-15T12:56:30;18.00;;;10.53;;
28068;SDS011;15382;47.578;8.086;2022-11-15T13:06:37;26.05;;;11.07;;
28068;SDS011;15382;47.578;8.086;2022-11-15T13:16:44;22.13;;;12.40;;
28068;SDS011;15382;47.578;8.086;2022-11-15T13:26:46;25.08;;;13.23;;
28068;SDS011;15382;47.578;8.086;2022-11-15T13:36:47;26.50;;;13.30;;
28068;SDS011;15382;47.578;8.086;2022-11-15T13:46:48;28.37;;;13.23;;
28068;SDS011;15382;47.578;8.086;2022-11-15T13:57:01;26.60;;;15.02;;
28068;SDS011;15382;47.578;8.086;2022-11-15T14:07:14;24.25;;;14.65;;
28068;SDS011;15382;47.578;8.086;2022-11-15T14:27:29;26.17;;;14.32;;
28068;SDS011;15382;47.578;8.086;2022-11-15T14:37:31;28.57;;;15.37;;
28068;SDS011;15382;47.578;8.086;2022-11-15T14:47:34;26.00;;;15.23;;
28068;SDS011;15382;47.578;8.086;2022-11-15T14:57:35;29.43;;;15.10;;
28068;SDS011;15382;47.578;8.086;2022-11-15T15:07:36;25.90;;;14.87;;
28068;SDS011;15382;47.578;8.086;2022-11-15T15:17:36;32.53;;;15.30;;
28068;SDS011;15382;47.578;8.086;2022-11-15T15:27:37;26.67;;;14.40;;
28068;SDS011;15382;47.578;8.086;2022-11-15T15:37:38;28.37;;;15.07;;
28068;SDS011;15382;47.578;8.086;2022-11-15T15:57:40;31.50;;;16.10;;
28068;SDS011;15382;47.578;8.086;2022-11-15T16:07:41;29.27;;;15.67;;
28068;SDS011;15382;47.578;8.086;2022-11-15T16:17:56;27.55;;;14.95;;
28068;SDS011;15382;47.578;8.086;2022-11-15T16:27:58;35.30;;;17.40;;
28068;SDS011;15382;47.578;8.086;2022-11-15T16:37:59;33.43;;;15.87;;
28068;SDS011;15382;47.578;8.086;2022-11-15T16:48:00;40.50;;;16.40;;
28068;SDS011;15382;47.578;8.086;2022-11-15T16:58:01;29.67;;;15.73;;
28068;SDS011;15382;47.578;8.086;2022-11-15T17:08:01;29.00;;;14.70;;
28068;SDS011;15382;47.578;8.086;2022-11-15T17:18:02;32.20;;;15.30;;
28068;SDS011;15382;47.578;8.086;2022-11-15T17:28:03;53.67;;;26.97;;
28068;SDS011;15382;47.578;8.086;2022-11-15T17:38:04;23.90;;;12.90;;
28068;SDS011;15382;47.578;8.086;2022-11-15T17:48:05;23.70;;;13.27;;
28068;SDS011;15382;47.578;8.086;2022-11-15T17:58:06;26.93;;;14.00;;
28068;SDS011;15382;47.578;8.086;2022-11-15T18:08:07;25.30;;;12.95;;
28068;SDS011;15382;47.578;8.086;2022-11-15T18:18:09;21.92;;;11.70;;
28068;SDS011;15382;47.578;8.086;2022-11-15T18:28:10;22.33;;;11.77;;
28068;SDS011;15382;47.578;8.086;2022-11-15T18:38:10;22.17;;;12.67;;
28068;SDS011;15382;47.578;8.086;2022-11-15T18:48:11;22.97;;;11.80;;
28068;SDS011;15382;47.578;8.086;2022-11-15T18:58:12;28.87;;;12.70;;
28068;SDS011;15382;47.578;8.086;2022-11-15T19:08:13;23.73;;;12.13;;
28068;SDS011;15382;47.578;8.086;2022-11-15T19:18:13;22.00;;;11.70;;
28068;SDS011;15382;47.578;8.086;2022-11-15T19:28:15;20.95;;;11.85;;
28068;SDS011;15382;47.578;8.086;2022-11-15T19:38:15;19.53;;;10.37;;
28068;SDS011;15382;47.578;8.086;2022-11-15T19:48:16;25.00;;;12.27;;
28068;SDS011;15382;47.578;8.086;2022-11-15T19:58:17;19.57;;;11.17;;
28068;SDS011;15382;47.578;8.086;2022-11-15T20:08:18;22.13;;;11.53;;
28068;SDS011;15382;47.578;8.086;2022-11-15T20:18:19;18.77;;;10.40;;
28068;SDS011;15382;47.578;8.086;2022-11-15T20:28:22;17.48;;;10.15;;
28068;SDS011;15382;47.578;8.086;2022-11-15T20:38:24;37.40;;;17.45;;
28068;SDS011;15382;47.578;8.086;2022-11-15T20:48:24;25.33;;;13.10;;
28068;SDS011;15382;47.578;8.086;2022-11-15T20:58:26;26.92;;;11.00;;
28068;SDS011;15382;47.578;8.086;2022-11-15T21:08:29;17.55;;;10.88;;
28068;SDS011;15382;47.578;8.086;2022-11-15T21:18:53;17.50;;;9.35;;
28068;SDS011;15382;47.578;8.086;2022-11-15T21:28:53;31.10;;;14.17;;
28068;SDS011;15382;47.578;8.086;2022-11-15T21:38:54;27.10;;;14.43;;
28068;SDS011;15382;47.578;8.086;2022-11-15T21:48:55;40.60;;;19.57;;
28068;SDS011;15382;47.578;8.086;2022-11-15T21:58:57;28.25;;;12.10;;
28068;SDS011;15382;47.578;8.086;2022-11-15T22:08:57;20.27;;;11.30;;
28068;SDS011;15382;47.578;8.086;2022-11-15T22:18:58;17.93;;;11.37;;
28068;SDS011;15382;47.578;8.086;2022-11-15T22:28:59;19.67;;;11.13;;
28068;SDS011;15382;47.578;8.086;2022-11-15T22:39:00;17.90;;;8.70;;
28068;SDS011;15382;47.578;8.086;2022-11-15T22:49:01;18.63;;;10.13;;
28068;SDS011;15382;47.578;8.086;2022-11-15T22:59:02;21.93;;;10.30;;
28068;SDS011;15382;47.578;8.086;2022-11-15T23:09:03;19.67;;;10.50;;
28068;SDS011;15382;47.578;8.086;2022-11-15T23:19:07;20.03;;;10.03;;
28068;SDS011;15382;47.578;8.086;2022-11-15T23:29:11;12.45;;;7.35;;
28068;SDS011;15382;47.578;8.086;2022-11-15T23:39:13;16.73;;;8.20;;
28068;SDS011;15382;47.578;8.086;2022-11-15T23:49:14;17.83;;;9.00;;
28068;SDS011;15382;47.578;8.086;2022-11-15T23:59:15;18.17;;;9.70;;
